sensor_id;sensor_type;location;lat;lon;timestamp;P1;durP1;ratioP1;P2;durP2;ratioP2
7247;SDS011;3665;51.034;13.642;2022-12-18T00:01:24;24.23;;;14.33;;
7247;SDS011;3665;51.034;13.642;2022-12-18T00:06:09;25.07;;;15.63;;
7247;SDS011;3665;51.034;13.642;2022-12-18T00:11:04;25.83;;;14.37;;
7247;SDS011;3665;51.034;13.642;2022-12-18T00:21:08;23.10;;;13.93;;
7247;SDS011;3665;51.034;13.642;2022-12-18T00:25:54;24.37;;;14.33;;
7247;SDS011;3665;51.034;13.642;2022-12-18T00:30:42;21.30;;;11.97;;
7247;SDS011;3665;51.034;13.642;2022-12-18T00:35:31;22.03;;;11.73;;
7247;SDS011;3665;51.034;13.642;2022-12-18T00:40:18;20.03;;;11.50;;
7247;SDS011;3665;51.034;13.642;2022-12-18T00:45:06;17.83;;;11.33;;
7247;SDS011;3665;51.034;13.642;2022-12-18T00:49:55;19.53;;;12.33;;
7247;SDS011;3665;51.034;13.642;2022-12-18T00:54:43;19.43;;;12.13;;
7247;SDS011;3665;51.034;13.642;2022-12-18T00:59:30;21.53;;;11.37;;
7247;SDS011;3665;51.034;13.642;2022-12-18T01:04:17;20.07;;;12.40;;
7247;SDS011;3665;51.034;13.642;2022-12-18T01:09:08;18.10;;;11.27;;
7247;SDS011;3665;51.034;13.642;2022-12-18T01:13:55;16.97;;;10.43;;
7247;SDS011;3665;51.034;13.642;2022-12-18T01:18:42;17.57;;;10.33;;
7247;SDS011;3665;51.034;13.642;2022-12-18T01:23:30;18.23;;;11.03;;
7247;SDS011;3665;51.034;13.642;2022-12-18T01:28:19;18.60;;;11.87;;
7247;SDS011;3665;51.034;13.642;2022-12-18T01:33:06;18.50;;;11.23;;
7247;SDS011;3665;51.034;13.642;2022-12-18T01:37:55;16.03;;;10.73;;
7247;SDS011;3665;51.034;13.642;2022-12-18T01:42:42;17.73;;;10.67;;
7247;SDS011;3665;51.034;13.642;2022-12-18T01:47:49;15.53;;;9.90;;
7247;SDS011;3665;51.034;13.642;2022-12-18T01:52:51;14.30;;;10.03;;
7247;SDS011;3665;51.034;13.642;2022-12-18T01:57:47;18.37;;;11.63;;
7247;SDS011;3665;51.034;13.642;2022-12-18T02:02:43;15.23;;;9.27;;
7247;SDS011;3665;51.034;13.642;2022-12-18T02:07:32;14.63;;;9.47;;
7247;SDS011;3665;51.034;13.642;2022-12-18T02:12:38;12.63;;;8.67;;
7247;SDS011;3665;51.034;13.642;2022-12-18T02:17:40;13.93;;;8.53;;
7247;SDS011;3665;51.034;13.642;2022-12-18T02:28:20;15.63;;;8.93;;
7247;SDS011;3665;51.034;13.642;2022-12-18T02:33:22;12.33;;;7.83;;
7247;SDS011;3665;51.034;13.642;2022-12-18T02:38:10;13.13;;;8.23;;
7247;SDS011;3665;51.034;13.642;2022-12-18T02:43:17;12.33;;;8.70;;
7247;SDS011;3665;51.034;13.642;2022-12-18T02:48:03;13.77;;;8.63;;
7247;SDS011;3665;51.034;13.642;2022-12-18T02:52:53;10.97;;;7.37;;
7247;SDS011;3665;51.034;13.642;2022-12-18T02:57:55;9.57;;;7.50;;
7247;SDS011;3665;51.034;13.642;2022-12-18T03:02:59;12.90;;;8.17;;
7247;SDS011;3665;51.034;13.642;2022-12-18T03:08:19;13.00;;;8.20;;
7247;SDS011;3665;51.034;13.642;2022-12-18T03:19:16;11.27;;;7.23;;
7247;SDS011;3665;51.034;13.642;2022-12-18T03:24:37;8.93;;;6.33;;
7247;SDS011;3665;51.034;13.642;2022-12-18T03:29:23;8.40;;;6.00;;
7247;SDS011;3665;51.034;13.642;2022-12-18T03:34:31;9.43;;;6.40;;
7247;SDS011;3665;51.034;13.642;2022-12-18T03:39:31;8.93;;;6.17;;
7247;SDS011;3665;51.034;13.642;2022-12-18T03:44:27;11.53;;;7.20;;
7247;SDS011;3665;51.034;13.642;2022-12-18T03:49:57;13.57;;;9.27;;
7247;SDS011;3665;51.034;13.642;2022-12-18T03:54:57;9.90;;;7.43;;
7247;SDS011;3665;51.034;13.642;2022-12-18T04:00:06;13.07;;;8.43;;
7247;SDS011;3665;51.034;13.642;2022-12-18T04:05:15;11.87;;;7.50;;
7247;SDS011;3665;51.034;13.642;2022-12-18T04:10:11;10.80;;;6.50;;
7247;SDS011;3665;51.034;13.642;2022-12-18T04:14:57;8.33;;;5.70;;
7247;SDS011;3665;51.034;13.642;2022-12-18T04:19:49;11.73;;;6.60;;
7247;SDS011;3665;51.034;13.642;2022-12-18T04:24:40;8.53;;;6.53;;
7247;SDS011;3665;51.034;13.642;2022-12-18T04:29:31;9.20;;;6.87;;
7247;SDS011;3665;51.034;13.642;2022-12-18T04:34:27;10.23;;;6.13;;
7247;SDS011;3665;51.034;13.642;2022-12-18T04:39:15;9.80;;;6.10;;
7247;SDS011;3665;51.034;13.642;2022-12-18T04:44:03;8.57;;;5.60;;
7247;SDS011;3665;51.034;13.642;2022-12-18T04:48:51;7.57;;;5.17;;
7247;SDS011;3665;51.034;13.642;2022-12-18T04:53:38;7.80;;;5.77;;
7247;SDS011;3665;51.034;13.642;2022-12-18T04:58:27;8.50;;;5.67;;
7247;SDS011;3665;51.034;13.642;2022-12-18T05:03:14;7.90;;;5.20;;
7247;SDS011;3665;51.034;13.642;2022-12-18T05:08:03;10.73;;;6.50;;
7247;SDS011;3665;51.034;13.642;2022-12-18T05:12:50;10.03;;;5.97;;
7247;SDS011;3665;51.034;13.642;2022-12-18T05:22:58;9.90;;;6.20;;
7247;SDS011;3665;51.034;13.642;2022-12-18T05:27:45;7.70;;;5.77;;
7247;SDS011;3665;51.034;13.642;2022-12-18T05:32:33;7.53;;;5.00;;
7247;SDS011;3665;51.034;13.642;2022-12-18T05:37:23;9.33;;;6.37;;
7247;SDS011;3665;51.034;13.642;2022-12-18T05:42:10;9.27;;;6.73;;
7247;SDS011;3665;51.034;13.642;2022-12-18T05:52:03;11.13;;;6.63;;
7247;SDS011;3665;51.034;13.642;2022-12-18T05:56:51;11.33;;;8.53;;
7247;SDS011;3665;51.034;13.642;2022-12-18T06:01:39;9.07;;;6.77;;
7247;SDS011;3665;51.034;13.642;2022-12-18T06:06:26;11.00;;;7.90;;
7247;SDS011;3665;51.034;13.642;2022-12-18T06:11:15;10.67;;;7.10;;
7247;SDS011;3665;51.034;13.642;2022-12-18T06:16:05;11.07;;;6.57;;
7247;SDS011;3665;51.034;13.642;2022-12-18T06:20:54;10.27;;;7.17;;
7247;SDS011;3665;51.034;13.642;2022-12-18T06:25:39;10.03;;;6.43;;
7247;SDS011;3665;51.034;13.642;2022-12-18T06:30:26;9.20;;;6.53;;
7247;SDS011;3665;51.034;13.642;2022-12-18T06:35:15;9.17;;;7.23;;
7247;SDS011;3665;51.034;13.642;2022-12-18T06:40:04;8.80;;;6.83;;
7247;SDS011;3665;51.034;13.642;2022-12-18T06:44:49;10.13;;;6.53;;
7247;SDS011;3665;51.034;13.642;2022-12-18T06:54:44;13.07;;;7.40;;
7247;SDS011;3665;51.034;13.642;2022-12-18T06:59:29;13.30;;;6.77;;
7247;SDS011;3665;51.034;13.642;2022-12-18T07:04:18;12.07;;;8.30;;
7247;SDS011;3665;51.034;13.642;2022-12-18T07:09:07;13.43;;;8.53;;
7247;SDS011;3665;51.034;13.642;2022-12-18T07:18:43;12.20;;;7.87;;
7247;SDS011;3665;51.034;13.642;2022-12-18T07:23:31;13.17;;;9.30;;
7247;SDS011;3665;51.034;13.642;2022-12-18T07:28:17;15.63;;;9.60;;
7247;SDS011;3665;51.034;13.642;2022-12-18T07:33:07;12.53;;;8.57;;
7247;SDS011;3665;51.034;13.642;2022-12-18T07:37:56;14.00;;;9.03;;
7247;SDS011;3665;51.034;13.642;2022-12-18T07:42:43;13.17;;;8.53;;
7247;SDS011;3665;51.034;13.642;2022-12-18T07:47:33;11.40;;;9.10;;
7247;SDS011;3665;51.034;13.642;2022-12-18T07:52:17;12.17;;;8.63;;
7247;SDS011;3665;51.034;13.642;2022-12-18T07:57:08;15.80;;;9.03;;
7247;SDS011;3665;51.034;13.642;2022-12-18T08:02:43;13.30;;;8.13;;
7247;SDS011;3665;51.034;13.642;2022-12-18T08:07:29;13.27;;;8.97;;
7247;SDS011;3665;51.034;13.642;2022-12-18T08:12:19;15.53;;;9.13;;
7247;SDS011;3665;51.034;13.642;2022-12-18T08:17:05;15.27;;;10.00;;
7247;SDS011;3665;51.034;13.642;2022-12-18T08:21:58;14.73;;;9.97;;
7247;SDS011;3665;51.034;13.642;2022-12-18T08:26:42;22.37;;;12.40;;
7247;SDS011;3665;51.034;13.642;2022-12-18T08:31:47;15.47;;;10.57;;
7247;SDS011;3665;51.034;13.642;2022-12-18T08:36:33;18.30;;;10.93;;
7247;SDS011;3665;51.034;13.642;2022-12-18T08:41:22;15.90;;;9.40;;
7247;SDS011;3665;51.034;13.642;2022-12-18T08:46:10;19.93;;;11.90;;
7247;SDS011;3665;51.034;13.642;2022-12-18T08:51:30;23.60;;;13.60;;
7247;SDS011;3665;51.034;13.642;2022-12-18T08:56:17;15.80;;;10.70;;
7247;SDS011;3665;51.034;13.642;2022-12-18T09:01:07;13.60;;;9.00;;
7247;SDS011;3665;51.034;13.642;2022-12-18T09:05:53;14.60;;;8.83;;
7247;SDS011;3665;51.034;13.642;2022-12-18T09:10:43;15.13;;;10.27;;
7247;SDS011;3665;51.034;13.642;2022-12-18T09:15:31;16.07;;;12.07;;
7247;SDS011;3665;51.034;13.642;2022-12-18T09:20:17;16.33;;;10.60;;
7247;SDS011;3665;51.034;13.642;2022-12-18T09:25:05;17.10;;;11.30;;
7247;SDS011;3665;51.034;13.642;2022-12-18T09:29:54;14.17;;;9.80;;
7247;SDS011;3665;51.034;13.642;2022-12-18T09:34:43;17.43;;;10.87;;
7247;SDS011;3665;51.034;13.642;2022-12-18T09:39:30;12.65;;;9.10;;
7247;SDS011;3665;51.034;13.642;2022-12-18T09:44:36;11.77;;;7.70;;
7247;SDS011;3665;51.034;13.642;2022-12-18T09:49:39;11.17;;;8.13;;
7247;SDS011;3665;51.034;13.642;2022-12-18T10:00:34;15.53;;;10.57;;
7247;SDS011;3665;51.034;13.642;2022-12-18T10:05:28;12.73;;;9.67;;
7247;SDS011;3665;51.034;13.642;2022-12-18T10:17:23;17.60;;;11.20;;
7247;SDS011;3665;51.034;13.642;2022-12-18T10:22:30;20.67;;;13.23;;
7247;SDS011;3665;51.034;13.642;2022-12-18T10:27:45;19.27;;;13.07;;
7247;SDS011;3665;51.034;13.642;2022-12-18T10:32:34;21.60;;;12.73;;
7247;SDS011;3665;51.034;13.642;2022-12-18T10:37:24;21.97;;;12.70;;
7247;SDS011;3665;51.034;13.642;2022-12-18T10:42:27;22.73;;;13.63;;
7247;SDS011;3665;51.034;13.642;2022-12-18T10:47:23;19.63;;;11.93;;
7247;SDS011;3665;51.034;13.642;2022-12-18T11:38:26;27.33;;;15.53;;
7247;SDS011;3665;51.034;13.642;2022-12-18T11:43:14;29.53;;;15.90;;
7247;SDS011;3665;51.034;13.642;2022-12-18T11:48:03;28.37;;;15.27;;
7247;SDS011;3665;51.034;13.642;2022-12-18T11:52:52;27.23;;;15.30;;
7247;SDS011;3665;51.034;13.642;2022-12-18T11:57:46;27.93;;;15.97;;
7247;SDS011;3665;51.034;13.642;2022-12-18T12:02:45;32.33;;;17.53;;
7247;SDS011;3665;51.034;13.642;2022-12-18T12:07:53;42.97;;;25.73;;
7247;SDS011;3665;51.034;13.642;2022-12-18T12:12:54;27.27;;;15.63;;
7247;SDS011;3665;51.034;13.642;2022-12-18T12:18:00;31.77;;;15.87;;
7247;SDS011;3665;51.034;13.642;2022-12-18T12:23:04;27.40;;;15.30;;
7247;SDS011;3665;51.034;13.642;2022-12-18T12:28:06;24.73;;;13.87;;
7247;SDS011;3665;51.034;13.642;2022-12-18T12:33:10;26.97;;;15.00;;
7247;SDS011;3665;51.034;13.642;2022-12-18T12:38:10;37.50;;;21.67;;
7247;SDS011;3665;51.034;13.642;2022-12-18T12:43:12;27.53;;;15.27;;
7247;SDS011;3665;51.034;13.642;2022-12-18T12:48:17;32.63;;;19.17;;
7247;SDS011;3665;51.034;13.642;2022-12-18T12:53:21;36.20;;;18.43;;
7247;SDS011;3665;51.034;13.642;2022-12-18T12:58:23;28.40;;;15.17;;
7247;SDS011;3665;51.034;13.642;2022-12-18T13:03:41;29.43;;;15.40;;
7247;SDS011;3665;51.034;13.642;2022-12-18T13:08:51;26.67;;;14.60;;
7247;SDS011;3665;51.034;13.642;2022-12-18T13:14:23;27.60;;;15.00;;
7247;SDS011;3665;51.034;13.642;2022-12-18T13:19:43;24.70;;;15.17;;
7247;SDS011;3665;51.034;13.642;2022-12-18T13:24:36;25.60;;;14.43;;
7247;SDS011;3665;51.034;13.642;2022-12-18T13:29:44;26.17;;;14.50;;
7247;SDS011;3665;51.034;13.642;2022-12-18T13:34:36;27.77;;;15.03;;
7247;SDS011;3665;51.034;13.642;2022-12-18T13:39:32;24.37;;;14.73;;
7247;SDS011;3665;51.034;13.642;2022-12-18T13:44:30;27.83;;;14.00;;
7247;SDS011;3665;51.034;13.642;2022-12-18T13:49:30;26.63;;;14.90;;
7247;SDS011;3665;51.034;13.642;2022-12-18T13:54:24;26.10;;;14.67;;
7247;SDS011;3665;51.034;13.642;2022-12-18T13:59:18;24.30;;;13.83;;
7247;SDS011;3665;51.034;13.642;2022-12-18T14:09:30;27.03;;;13.60;;
7247;SDS011;3665;51.034;13.642;2022-12-18T14:14:19;26.80;;;14.80;;
7247;SDS011;3665;51.034;13.642;2022-12-18T14:19:13;22.20;;;14.03;;
7247;SDS011;3665;51.034;13.642;2022-12-18T14:24:05;24.33;;;13.93;;
7247;SDS011;3665;51.034;13.642;2022-12-18T14:28:59;26.60;;;14.93;;
7247;SDS011;3665;51.034;13.642;2022-12-18T14:34:08;22.40;;;13.40;;
7247;SDS011;3665;51.034;13.642;2022-12-18T14:38:59;21.50;;;11.47;;
7247;SDS011;3665;51.034;13.642;2022-12-18T14:43:47;35.63;;;21.57;;
7247;SDS011;3665;51.034;13.642;2022-12-18T14:48:37;23.57;;;13.33;;
7247;SDS011;3665;51.034;13.642;2022-12-18T14:53:36;24.83;;;12.77;;
7247;SDS011;3665;51.034;13.642;2022-12-18T14:58:26;26.43;;;14.37;;
7247;SDS011;3665;51.034;13.642;2022-12-18T15:03:12;20.30;;;11.97;;
7247;SDS011;3665;51.034;13.642;2022-12-18T15:13:20;23.27;;;13.50;;
7247;SDS011;3665;51.034;13.642;2022-12-18T15:18:11;24.40;;;12.67;;
7247;SDS011;3665;51.034;13.642;2022-12-18T15:23:02;22.07;;;13.37;;
7247;SDS011;3665;51.034;13.642;2022-12-18T15:27:49;23.23;;;12.23;;
7247;SDS011;3665;51.034;13.642;2022-12-18T15:32:34;22.80;;;13.73;;
7247;SDS011;3665;51.034;13.642;2022-12-18T15:37:19;22.30;;;13.10;;
7247;SDS011;3665;51.034;13.642;2022-12-18T15:42:14;23.47;;;13.17;;
7247;SDS011;3665;51.034;13.642;2022-12-18T15:47:17;26.70;;;14.93;;
7247;SDS011;3665;51.034;13.642;2022-12-18T15:52:01;22.70;;;13.67;;
7247;SDS011;3665;51.034;13.642;2022-12-18T15:56:46;26.00;;;15.17;;
7247;SDS011;3665;51.034;13.642;2022-12-18T16:01:48;23.10;;;13.13;;
7247;SDS011;3665;51.034;13.642;2022-12-18T16:06:38;27.17;;;14.43;;
7247;SDS011;3665;51.034;13.642;2022-12-18T16:11:45;25.57;;;13.73;;
7247;SDS011;3665;51.034;13.642;2022-12-18T16:16:29;23.93;;;14.13;;
7247;SDS011;3665;51.034;13.642;2022-12-18T16:21:13;25.93;;;13.33;;
7247;SDS011;3665;51.034;13.642;2022-12-18T16:25:59;28.60;;;14.97;;
7247;SDS011;3665;51.034;13.642;2022-12-18T16:30:43;25.33;;;14.70;;
7247;SDS011;3665;51.034;13.642;2022-12-18T16:35:31;21.67;;;14.10;;
7247;SDS011;3665;51.034;13.642;2022-12-18T16:40:16;25.43;;;14.43;;
7247;SDS011;3665;51.034;13.642;2022-12-18T16:45:05;25.33;;;14.03;;
7247;SDS011;3665;51.034;13.642;2022-12-18T16:49:49;24.17;;;15.00;;
7247;SDS011;3665;51.034;13.642;2022-12-18T16:54:38;24.87;;;12.87;;
7247;SDS011;3665;51.034;13.642;2022-12-18T16:59:25;24.30;;;14.00;;
7247;SDS011;3665;51.034;13.642;2022-12-18T17:04:12;25.83;;;12.97;;
7247;SDS011;3665;51.034;13.642;2022-12-18T17:08:57;26.17;;;14.40;;
7247;SDS011;3665;51.034;13.642;2022-12-18T17:13:42;24.90;;;12.50;;
7247;SDS011;3665;51.034;13.642;2022-12-18T17:18:27;24.77;;;12.20;;
7247;SDS011;3665;51.034;13.642;2022-12-18T17:23:12;23.40;;;12.33;;
7247;SDS011;3665;51.034;13.642;2022-12-18T17:27:56;22.43;;;13.17;;
7247;SDS011;3665;51.034;13.642;2022-12-18T17:32:43;29.90;;;14.73;;
7247;SDS011;3665;51.034;13.642;2022-12-18T17:37:27;21.40;;;13.07;;
7247;SDS011;3665;51.034;13.642;2022-12-18T17:42:13;29.03;;;14.03;;
7247;SDS011;3665;51.034;13.642;2022-12-18T17:46:57;23.70;;;14.53;;
7247;SDS011;3665;51.034;13.642;2022-12-18T17:51:41;24.77;;;12.97;;
7247;SDS011;3665;51.034;13.642;2022-12-18T17:56:25;21.00;;;12.87;;
7247;SDS011;3665;51.034;13.642;2022-12-18T18:01:11;23.17;;;13.07;;
7247;SDS011;3665;51.034;13.642;2022-12-18T18:05:57;24.40;;;13.13;;
7247;SDS011;3665;51.034;13.642;2022-12-18T18:10:56;25.97;;;13.67;;
7247;SDS011;3665;51.034;13.642;2022-12-18T18:16:00;26.30;;;14.63;;
7247;SDS011;3665;51.034;13.642;2022-12-18T18:20:53;23.33;;;13.27;;
7247;SDS011;3665;51.034;13.642;2022-12-18T18:25:39;26.17;;;13.90;;
7247;SDS011;3665;51.034;13.642;2022-12-18T18:30:24;24.17;;;13.03;;
7247;SDS011;3665;51.034;13.642;2022-12-18T18:35:08;24.03;;;13.13;;
7247;SDS011;3665;51.034;13.642;2022-12-18T18:40:13;23.27;;;13.60;;
7247;SDS011;3665;51.034;13.642;2022-12-18T18:45:00;25.27;;;15.03;;
7247;SDS011;3665;51.034;13.642;2022-12-18T18:49:44;27.27;;;13.20;;
7247;SDS011;3665;51.034;13.642;2022-12-18T18:54:32;24.30;;;11.83;;
7247;SDS011;3665;51.034;13.642;2022-12-18T18:59:18;24.87;;;14.47;;
7247;SDS011;3665;51.034;13.642;2022-12-18T19:04:12;25.03;;;14.43;;
7247;SDS011;3665;51.034;13.642;2022-12-18T19:08:57;22.90;;;12.97;;
7247;SDS011;3665;51.034;13.642;2022-12-18T19:13:45;21.87;;;13.17;;
7247;SDS011;3665;51.034;13.642;2022-12-18T19:18:37;19.90;;;11.93;;
7247;SDS011;3665;51.034;13.642;2022-12-18T19:23:22;21.03;;;12.17;;
7247;SDS011;3665;51.034;13.642;2022-12-18T19:28:07;20.67;;;11.33;;
7247;SDS011;3665;51.034;13.642;2022-12-18T19:33:03;16.20;;;10.47;;
7247;SDS011;3665;51.034;13.642;2022-12-18T19:38:09;18.67;;;10.73;;
7247;SDS011;3665;51.034;13.642;2022-12-18T19:42:54;18.03;;;10.33;;
7247;SDS011;3665;51.034;13.642;2022-12-18T19:47:40;20.70;;;10.90;;
7247;SDS011;3665;51.034;13.642;2022-12-18T19:52:25;21.37;;;11.83;;
7247;SDS011;3665;51.034;13.642;2022-12-18T19:57:11;18.67;;;9.93;;
7247;SDS011;3665;51.034;13.642;2022-12-18T20:01:55;20.57;;;11.03;;
7247;SDS011;3665;51.034;13.642;2022-12-18T20:06:46;20.13;;;10.57;;
7247;SDS011;3665;51.034;13.642;2022-12-18T20:11:32;20.57;;;11.03;;
7247;SDS011;3665;51.034;13.642;2022-12-18T20:16:26;22.43;;;12.07;;
7247;SDS011;3665;51.034;13.642;2022-12-18T20:21:15;20.67;;;11.40;;
7247;SDS011;3665;51.034;13.642;2022-12-18T20:26:00;20.70;;;11.23;;
7247;SDS011;3665;51.034;13.642;2022-12-18T20:30:49;20.10;;;11.50;;
7247;SDS011;3665;51.034;13.642;2022-12-18T20:35:37;23.63;;;12.43;;
7247;SDS011;3665;51.034;13.642;2022-12-18T20:40:22;21.67;;;12.13;;
7247;SDS011;3665;51.034;13.642;2022-12-18T20:45:12;19.97;;;11.70;;
7247;SDS011;3665;51.034;13.642;2022-12-18T20:49:59;18.77;;;10.70;;
7247;SDS011;3665;51.034;13.642;2022-12-18T20:54:45;20.33;;;10.67;;
7247;SDS011;3665;51.034;13.642;2022-12-18T20:59:29;20.60;;;12.20;;
7247;SDS011;3665;51.034;13.642;2022-12-18T21:04:13;22.27;;;11.83;;
7247;SDS011;3665;51.034;13.642;2022-12-18T21:09:00;19.77;;;10.93;;
7247;SDS011;3665;51.034;13.642;2022-12-18T21:13:47;17.10;;;10.13;;
7247;SDS011;3665;51.034;13.642;2022-12-18T21:18:30;19.63;;;10.97;;
7247;SDS011;3665;51.034;13.642;2022-12-18T21:23:16;19.93;;;11.07;;
7247;SDS011;3665;51.034;13.642;2022-12-18T21:28:01;21.77;;;11.70;;
7247;SDS011;3665;51.034;13.642;2022-12-18T21:32:47;20.30;;;11.03;;
7247;SDS011;3665;51.034;13.642;2022-12-18T21:37:34;17.53;;;10.53;;
7247;SDS011;3665;51.034;13.642;2022-12-18T21:42:25;22.23;;;12.33;;
7247;SDS011;3665;51.034;13.642;2022-12-18T21:47:28;19.90;;;12.50;;
7247;SDS011;3665;51.034;13.642;2022-12-18T21:52:22;23.07;;;13.10;;
7247;SDS011;3665;51.034;13.642;2022-12-18T21:57:13;24.17;;;12.93;;
7247;SDS011;3665;51.034;13.642;2022-12-18T22:02:00;22.93;;;12.20;;
7247;SDS011;3665;51.034;13.642;2022-12-18T22:06:48;21.10;;;11.77;;
7247;SDS011;3665;51.034;13.642;2022-12-18T22:11:34;20.67;;;11.43;;
7247;SDS011;3665;51.034;13.642;2022-12-18T22:16:22;24.67;;;13.10;;
7247;SDS011;3665;51.034;13.642;2022-12-18T22:21:20;23.33;;;12.20;;
7247;SDS011;3665;51.034;13.642;2022-12-18T22:26:12;22.07;;;11.77;;
7247;SDS011;3665;51.034;13.642;2022-12-18T22:30:58;23.73;;;13.30;;
7247;SDS011;3665;51.034;13.642;2022-12-18T22:35:42;19.53;;;12.67;;
7247;SDS011;3665;51.034;13.642;2022-12-18T22:40:28;23.30;;;13.03;;
7247;SDS011;3665;51.034;13.642;2022-12-18T22:45:12;21.90;;;13.87;;
7247;SDS011;3665;51.034;13.642;2022-12-18T22:49:57;23.27;;;13.43;;
7247;SDS011;3665;51.034;13.642;2022-12-18T22:54:42;19.77;;;13.17;;
7247;SDS011;3665;51.034;13.642;2022-12-18T22:59:30;21.60;;;13.53;;
7247;SDS011;3665;51.034;13.642;2022-12-18T23:04:14;22.37;;;13.70;;
7247;SDS011;3665;51.034;13.642;2022-12-18T23:09:00;23.40;;;13.53;;
7247;SDS011;3665;51.034;13.642;2022-12-18T23:13:44;19.40;;;12.80;;
7247;SDS011;3665;51.034;13.642;2022-12-18T23:18:29;22.63;;;13.50;;
7247;SDS011;3665;51.034;13.642;2022-12-18T23:23:13;22.53;;;13.37;;
7247;SDS011;3665;51.034;13.642;2022-12-18T23:28:01;23.17;;;14.00;;
7247;SDS011;3665;51.034;13.642;2022-12-18T23:32:46;22.50;;;13.60;;
7247;SDS011;3665;51.034;13.642;2022-12-18T23:37:29;25.47;;;15.00;;
7247;SDS011;3665;51.034;13.642;2022-12-18T23:42:37;27.57;;;16.37;;
7247;SDS011;3665;51.034;13.642;2022-12-18T23:47:26;23.97;;;14.27;;
7247;SDS011;3665;51.034;13.642;2022-12-18T23:52:13;28.23;;;16.17;;
7247;SDS011;3665;51.034;13.642;2022-12-18T23:57:00;27.40;;;15.80;;
